Time;durP1;ratioP1;P1;durP2;ratioP2;P2;SDS_P1;SDS_P2;PMS_P1;PMS_P2;Temp;Humidity;BMP_temperature;BMP_pressure;BME280_temperature;BME280_humidity;BME280_pressure;Samples;Min_cycle;Max_cycle;Signal;HPM_P1;HPM_P2
2023/07/16 00:00:12;;;;;;;10.20;3.33;;;17.10;97.30;;;;;;5031425;28;36902;-92
2023/07/16 00:02:38;;;;;;;15.05;3.58;;;17.20;97.20;;;;;;5029318;28;39314;-89
2023/07/16 00:05:10;;;;;;;11.82;3.60;;;17.20;95.20;;;;;;5029948;28;38630;-91
2023/07/16 00:07:37;;;;;;;12.70;3.75;;;17.20;94.30;;;;;;5030752;28;37185;-90
2023/07/16 00:10:04;;;;;;;11.38;3.25;;;17.20;94.50;;;;;;5045664;28;35939;-89
2023/07/16 00:12:30;;;;;;;15.95;3.55;;;17.20;96.30;;;;;;5029859;28;39072;-89
2023/07/16 00:14:57;;;;;;;10.85;3.28;;;17.20;98.40;;;;;;5030359;28;37296;-90
2023/07/16 00:17:23;;;;;;;13.65;4.00;;;17.10;97.50;;;;;;5036615;28;38488;-91
2023/07/16 00:19:49;;;;;;;16.45;3.88;;;17.20;95.50;;;;;;5028595;28;36475;-90
2023/07/16 00:22:15;;;;;;;9.32;3.70;;;17.20;96.50;;;;;;5028733;28;39286;-90
2023/07/16 00:24:41;;;;;;;16.42;4.00;;;17.20;96.10;;;;;;5028901;28;37324;-89
2023/07/16 00:27:07;;;;;;;9.23;3.65;;;17.20;96.30;;;;;;5045961;28;38265;-88
2023/07/16 00:29:33;;;;;;;12.73;3.70;;;17.10;97.90;;;;;;5045036;28;36346;-88
2023/07/16 00:31:59;;;;;;;9.77;3.47;;;17.10;99.20;;;;;;5028414;28;38748;-91
2023/07/16 00:34:25;;;;;;;7.22;3.38;;;17.10;99.80;;;;;;5045314;28;37413;-90
2023/07/16 00:36:51;;;;;;;18.52;5.47;;;17.10;99.90;;;;;;5028485;28;37095;-89
2023/07/16 00:39:18;;;;;;;13.10;3.92;;;17.10;98.70;;;;;;5028105;28;37781;-88
2023/07/16 00:41:44;;;;;;;14.18;4.97;;;17.20;99.70;;;;;;5045693;28;37836;-90
2023/07/16 00:44:10;;;;;;;13.85;4.35;;;17.20;98.20;;;;;;5023390;28;37494;-87
2023/07/16 00:46:36;;;;;;;14.20;3.70;;;17.20;99.90;;;;;;5029658;28;38512;-88
2023/07/16 00:49:02;;;;;;;16.30;3.75;;;17.10;99.30;;;;;;5028528;28;36014;-88
2023/07/16 00:51:31;;;;;;;13.15;5.40;;;17.10;99.90;;;;;;5027719;28;37880;-90
2023/07/16 00:53:57;;;;;;;13.20;4.90;;;17.10;98.70;;;;;;5029232;28;37576;-89
2023/07/16 00:56:23;;;;;;;11.77;4.03;;;17.20;98.50;;;;;;5029668;28;38143;-90
2023/07/16 00:58:50;;;;;;;12.95;4.55;;;17.20;98.70;;;;;;5029483;28;37297;-90
2023/07/16 01:03:51;;;;;;;17.42;4.88;;;17.10;99.80;;;;;;3848051;23;20150;-76
2023/07/16 01:06:39;;;;;;;12.32;4.93;;;17.20;98.30;;;;;;5003199;28;38409;-76
2023/07/16 01:09:16;;;;;;;20.25;5.40;;;17.20;97.90;;;;;;5004883;28;38075;-76
2023/07/16 01:11:44;;;;;;;11.27;4.53;;;17.20;96.90;;;;;;5007689;28;38994;-76
2023/07/16 01:14:12;;;;;;;11.73;4.70;;;17.30;98.00;;;;;;5007035;28;38240;-76
2023/07/16 01:16:38;;;;;;;16.40;5.18;;;17.20;98.50;;;;;;5022992;28;38662;-75
2023/07/16 01:19:05;;;;;;;13.20;5.10;;;17.20;99.30;;;;;;5007323;28;37700;-76
2023/07/16 01:22:02;;;;;;;13.75;5.07;;;17.20;99.90;;;;;;5005385;28;38989;-76
2023/07/16 01:25:00;;;;;;;14.32;5.43;;;17.10;99.90;;;;;;5016357;28;47210;-77
2023/07/16 01:27:38;;;;;;;15.35;5.72;;;17.10;99.90;;;;;;5002754;28;38240;-77
2023/07/16 01:30:06;;;;;;;12.13;5.28;;;17.20;99.90;;;;;;5022088;28;35778;-75
2023/07/16 01:32:33;;;;;;;16.10;5.22;;;17.20;99.90;;;;;;5007152;28;40630;-78
2023/07/16 01:35:00;;;;;;;15.00;5.50;;;17.20;99.50;;;;;;5005972;28;39081;-77
2023/07/16 01:37:26;;;;;;;11.55;5.05;;;17.30;99.40;;;;;;5005883;28;38787;-76
2023/07/16 01:39:52;;;;;;;18.00;6.30;;;17.30;99.90;;;;;;5006660;28;37906;-75
2023/07/16 01:42:18;;;;;;;13.75;5.32;;;17.20;99.90;;;;;;5006492;28;38665;-75
2023/07/16 01:44:44;;;;;;;12.18;5.82;;;17.30;99.90;;;;;;5022666;28;37234;-75
2023/07/16 01:47:28;;;;;;;16.65;6.13;;;17.30;99.50;;;;;;5004459;28;39326;-76
2023/07/16 01:49:55;;;;;;;15.55;6.57;;;17.20;99.90;;;;;;5021832;28;35763;-75
2023/07/16 01:52:22;;;;;;;17.27;5.97;;;17.20;99.90;;;;;;5008969;28;37975;-76
2023/07/16 01:54:48;;;;;;;12.48;5.05;;;17.20;99.90;;;;;;5008580;28;37524;-76
2023/07/16 01:57:14;;;;;;;17.98;5.72;;;17.20;99.90;;;;;;5002340;28;38053;-76
2023/07/16 01:59:40;;;;;;;14.23;5.57;;;17.20;99.90;;;;;;5009142;28;37865;-76
2023/07/16 02:02:06;;;;;;;12.20;6.00;;;17.20;99.90;;;;;;5008382;28;39436;-78
2023/07/16 02:04:32;;;;;;;18.55;6.38;;;17.10;99.90;;;;;;5010579;28;39365;-78
2023/07/16 02:06:58;;;;;;;21.55;6.38;;;17.10;99.90;;;;;;5009998;28;37871;-78
2023/07/16 02:09:25;;;;;;;15.00;5.93;;;17.10;99.90;;;;;;5016928;28;36906;-77
2023/07/16 02:11:51;;;;;;;17.58;6.72;;;17.10;99.90;;;;;;5015886;28;39866;-77
2023/07/16 02:14:18;;;;;;;19.95;6.10;;;17.20;99.90;;;;;;5011435;28;37385;-77
2023/07/16 02:16:44;;;;;;;11.82;6.07;;;17.20;99.90;;;;;;5009404;28;37081;-76
2023/07/16 02:19:10;;;;;;;15.38;5.63;;;17.20;99.90;;;;;;5025025;28;37844;-76
2023/07/16 02:21:36;;;;;;;19.33;6.35;;;17.20;99.90;;;;;;5010140;28;38772;-76
2023/07/16 02:24:02;;;;;;;18.40;6.05;;;17.10;99.90;;;;;;5007136;28;38600;-75
2023/07/16 02:26:28;;;;;;;23.77;6.47;;;17.10;99.90;;;;;;5009608;28;37267;-76
2023/07/16 02:28:54;;;;;;;20.48;6.47;;;17.20;99.90;;;;;;5010760;28;37358;-75
2023/07/16 02:31:21;;;;;;;15.57;6.07;;;17.10;99.90;;;;;;5012200;28;39565;-76
2023/07/16 02:33:47;;;;;;;14.15;5.75;;;17.10;99.90;;;;;;5011957;28;39158;-76
2023/07/16 02:36:13;;;;;;;11.52;5.20;;;17.10;99.90;;;;;;5009565;28;39800;-75
2023/07/16 02:38:39;;;;;;;13.88;5.50;;;17.10;99.90;;;;;;5025314;28;38007;-76
2023/07/16 02:41:05;;;;;;;8.88;4.82;;;17.00;99.90;;;;;;5010363;28;39606;-77
2023/07/16 02:43:31;;;;;;;15.70;5.18;;;17.00;99.90;;;;;;5016042;28;40014;-76
2023/07/16 02:45:57;;;;;;;19.55;5.28;;;16.90;99.90;;;;;;5034942;28;37205;-76
2023/07/16 02:48:24;;;;;;;13.85;5.28;;;16.90;99.90;;;;;;5015280;28;36073;-76
2023/07/16 02:50:50;;;;;;;16.05;5.13;;;16.90;99.90;;;;;;5012627;28;37568;-77
2023/07/16 02:53:16;;;;;;;12.35;5.40;;;16.90;99.90;;;;;;5011535;28;38963;-75
2023/07/16 02:55:44;;;;;;;12.70;4.95;;;16.80;99.90;;;;;;5016635;28;38496;-75
2023/07/16 02:58:11;;;;;;;14.15;4.90;;;16.80;99.90;;;;;;5016019;28;36847;-76
2023/07/16 03:00:37;;;;;;;11.65;5.55;;;16.90;99.90;;;;;;5016613;28;38262;-76
2023/07/16 03:03:04;;;;;;;13.05;4.88;;;16.80;99.90;;;;;;5018009;28;38436;-76
2023/07/16 03:05:30;;;;;;;13.70;4.72;;;16.80;99.90;;;;;;5014422;28;38883;-75
2023/07/16 03:07:56;;;;;;;15.50;5.28;;;16.80;99.90;;;;;;5030565;28;36248;-75
2023/07/16 03:10:26;;;;;;;11.50;4.70;;;16.80;99.90;;;;;;5014450;28;37600;-75
2023/07/16 03:12:53;;;;;;;15.82;5.35;;;16.90;99.90;;;;;;5013989;28;37538;-75
2023/07/16 03:15:19;;;;;;;14.65;5.72;;;16.90;99.90;;;;;;5006453;28;38033;-76
2023/07/16 03:17:45;;;;;;;14.25;5.10;;;16.80;99.90;;;;;;5017433;28;37256;-76
2023/07/16 03:20:13;;;;;;;13.07;5.38;;;16.80;99.90;;;;;;5027989;28;38723;-76
2023/07/16 03:22:39;;;;;;;12.85;6.20;;;16.80;99.90;;;;;;5011872;28;38857;-76
2023/07/16 03:25:06;;;;;;;13.73;5.70;;;16.80;99.90;;;;;;5014106;28;37802;-76
2023/07/16 03:27:32;;;;;;;18.10;5.80;;;16.80;99.90;;;;;;5013508;28;37282;-76
2023/07/16 03:29:59;;;;;;;13.45;5.97;;;16.80;99.90;;;;;;5013556;28;37899;-77
2023/07/16 03:32:25;;;;;;;17.90;6.72;;;16.80;99.90;;;;;;5012205;28;38796;-75
2023/07/16 03:34:51;;;;;;;19.92;6.43;;;16.80;99.90;;;;;;5014840;28;37487;-76
2023/07/16 03:37:17;;;;;;;14.90;6.10;;;16.80;99.90;;;;;;5023953;28;37516;-76
2023/07/16 03:39:43;;;;;;;13.10;6.50;;;16.80;99.90;;;;;;5017530;28;38896;-76
2023/07/16 03:42:09;;;;;;;10.93;6.22;;;16.80;99.90;;;;;;5005065;28;39060;-75
2023/07/16 03:44:35;;;;;;;13.77;6.15;;;16.80;99.90;;;;;;5014430;28;37436;-78
2023/07/16 03:47:02;;;;;;;16.45;6.28;;;16.80;99.90;;;;;;5010127;28;35984;-75
2023/07/16 03:49:28;;;;;;;15.02;5.60;;;16.80;99.90;;;;;;5025395;28;38268;-75
2023/07/16 03:51:54;;;;;;;11.40;5.97;;;16.70;99.90;;;;;;5011148;28;40156;-76
2023/07/16 03:54:20;;;;;;;14.63;5.57;;;16.70;99.90;;;;;;5009884;28;38718;-76
2023/07/16 03:56:46;;;;;;;12.00;5.80;;;16.70;99.90;;;;;;5008444;28;38207;-77
2023/07/16 03:59:12;;;;;;;14.25;5.78;;;16.70;99.90;;;;;;5007794;28;39962;-77
2023/07/16 04:01:38;;;;;;;11.77;5.50;;;16.70;99.90;;;;;;5008180;28;38800;-75
2023/07/16 04:04:04;;;;;;;12.20;5.75;;;16.70;99.90;;;;;;5020589;28;38543;-75
2023/07/16 04:06:31;;;;;;;18.67;6.72;;;16.70;99.90;;;;;;5009487;28;38209;-76
2023/07/16 04:08:57;;;;;;;12.27;6.18;;;16.70;99.90;;;;;;5010271;28;39375;-75
2023/07/16 04:11:23;;;;;;;13.88;5.90;;;16.70;99.90;;;;;;5007782;28;40185;-76
2023/07/16 04:13:49;;;;;;;12.70;5.95;;;16.80;99.90;;;;;;5009329;28;38857;-75
2023/07/16 04:16:16;;;;;;;15.00;6.65;;;16.80;99.90;;;;;;5026452;28;20047;-76
2023/07/16 04:18:43;;;;;;;14.15;7.18;;;16.90;99.90;;;;;;5023680;28;39509;-76
2023/07/16 04:21:09;;;;;;;17.63;6.55;;;16.90;99.90;;;;;;5006152;28;40035;-76
2023/07/16 04:23:35;;;;;;;19.48;6.47;;;16.90;99.90;;;;;;5009028;28;37986;-75
2023/07/16 04:26:01;;;;;;;21.00;6.57;;;16.90;99.90;;;;;;5008908;28;38990;-76
2023/07/16 04:28:28;;;;;;;17.52;7.65;;;16.90;99.90;;;;;;5009401;28;40256;-75
2023/07/16 04:30:54;;;;;;;16.98;6.72;;;16.90;99.90;;;;;;5008105;28;39868;-76
2023/07/16 04:33:20;;;;;;;14.43;6.40;;;17.00;99.90;;;;;;5008933;28;37910;-76
2023/07/16 04:35:46;;;;;;;13.43;6.35;;;17.00;98.70;;;;;;5010109;28;37919;-76
2023/07/16 04:38:13;;;;;;;11.88;5.68;;;17.00;99.90;;;;;;5025105;28;39475;-76
2023/07/16 04:40:39;;;;;;;12.85;6.43;;;17.00;99.90;;;;;;5008748;28;38828;-77
2023/07/16 04:43:05;;;;;;;11.90;5.53;;;17.00;98.00;;;;;;5011734;28;38434;-76
2023/07/16 04:45:31;;;;;;;15.20;6.63;;;17.00;95.70;;;;;;5008838;28;36903;-77
2023/07/16 04:47:59;;;;;;;9.45;5.43;;;17.00;90.40;;;;;;5010012;28;38893;-76
2023/07/16 04:50:25;;;;;;;9.98;5.63;;;17.00;86.00;;;;;;5009150;28;38007;-76
2023/07/16 04:52:51;;;;;;;12.30;5.65;;;16.90;88.80;;;;;;5007260;28;38265;-76
2023/07/16 04:55:17;;;;;;;10.20;5.32;;;16.90;90.20;;;;;;5008045;28;38284;-77
2023/07/16 04:57:43;;;;;;;11.30;5.45;;;16.90;93.10;;;;;;5009131;28;39459;-76
2023/07/16 05:00:10;;;;;;;12.52;5.72;;;16.90;93.70;;;;;;5006885;28;37233;-77
2023/07/16 05:02:36;;;;;;;14.85;6.13;;;17.00;92.10;;;;;;5003363;28;38042;-76
2023/07/16 05:05:02;;;;;;;17.83;6.50;;;17.00;93.40;;;;;;5009185;28;37297;-76
2023/07/16 05:07:28;;;;;;;24.52;6.20;;;17.10;93.10;;;;;;5008049;28;38595;-76
2023/07/16 05:09:54;;;;;;;15.52;6.35;;;17.10;93.40;;;;;;5007628;28;37606;-76
2023/07/16 05:12:20;;;;;;;13.60;6.13;;;17.10;95.00;;;;;;5008216;28;38785;-77
2023/07/16 05:14:48;;;;;;;11.98;6.25;;;17.10;97.50;;;;;;5008373;28;37195;-75
2023/07/16 05:17:14;;;;;;;14.88;6.40;;;17.20;99.70;;;;;;5007626;28;38138;-76
2023/07/16 05:19:40;;;;;;;14.18;6.28;;;17.20;93.00;;;;;;5008151;28;37263;-76
2023/07/16 05:22:07;;;;;;;12.80;5.78;;;17.30;92.30;;;;;;5007549;28;38898;-76
2023/07/16 05:24:33;;;;;;;11.73;5.85;;;17.30;92.50;;;;;;5017144;28;38041;-75
2023/07/16 05:27:01;;;;;;;17.88;6.57;;;17.40;90.20;;;;;;5017811;28;39923;-76
2023/07/16 05:29:27;;;;;;;17.77;6.22;;;17.40;92.70;;;;;;5010930;28;41963;-78
2023/07/16 05:31:53;;;;;;;12.55;6.18;;;17.50;85.70;;;;;;5027524;28;36861;-76
2023/07/16 05:34:20;;;;;;;14.38;5.90;;;17.60;85.70;;;;;;5010324;28;38806;-77
2023/07/16 05:36:46;;;;;;;13.88;5.97;;;17.70;83.10;;;;;;5010860;28;38970;-76
2023/07/16 05:39:12;;;;;;;16.10;6.20;;;17.60;77.90;;;;;;5011619;28;38676;-76
2023/07/16 05:41:41;;;;;;;11.32;5.97;;;17.60;77.90;;;;;;5009095;28;37972;-76
2023/07/16 05:44:08;;;;;;;13.88;5.85;;;17.70;79.00;;;;;;5009775;28;36193;-77
2023/07/16 05:46:34;;;;;;;13.13;7.15;;;17.70;78.70;;;;;;5009786;28;40399;-77
2023/07/16 05:49:00;;;;;;;16.05;6.63;;;17.70;88.10;;;;;;5019989;28;39956;-76
2023/07/16 05:51:27;;;;;;;11.95;6.63;;;17.60;82.20;;;;;;5011358;28;47500;-76
2023/07/16 05:53:53;;;;;;;12.80;6.28;;;17.60;87.90;;;;;;5010917;28;37888;-77
2023/07/16 05:56:20;;;;;;;12.32;6.25;;;17.50;76.80;;;;;;5003529;28;38483;-77
2023/07/16 05:58:46;;;;;;;13.80;6.97;;;17.60;88.90;;;;;;5009518;28;39153;-75
2023/07/16 06:01:12;;;;;;;13.68;7.07;;;17.70;78.60;;;;;;5010465;28;38824;-78
2023/07/16 06:03:38;;;;;;;13.38;7.10;;;17.90;73.60;;;;;;5009118;28;39030;-77
2023/07/16 06:06:04;;;;;;;14.55;6.38;;;18.00;75.30;;;;;;5009348;28;40447;-78
2023/07/16 06:08:31;;;;;;;13.52;5.63;;;18.10;76.80;;;;;;5011392;28;38501;-78
2023/07/16 06:10:57;;;;;;;13.95;6.65;;;18.20;76.00;;;;;;5009543;28;37023;-78
2023/07/16 06:13:23;;;;;;;10.93;5.65;;;18.20;74.20;;;;;;5008590;28;37544;-75
2023/07/16 06:15:50;;;;;;;11.07;5.72;;;18.20;80.60;;;;;;5006158;28;40514;-77
2023/07/16 06:18:16;;;;;;;13.05;6.45;;;18.20;78.30;;;;;;5010123;28;39415;-77
2023/07/16 06:20:45;;;;;;;15.00;5.75;;;18.00;87.90;;;;;;5005475;28;37254;-76
2023/07/16 06:23:16;;;;;;;15.07;7.10;;;18.00;89.70;;;;;;5010540;28;37052;-76
2023/07/16 06:25:48;;;;;;;12.77;5.50;;;18.10;90.80;;;;;;5010244;28;38905;-76
2023/07/16 06:28:14;;;;;;;14.13;6.40;;;18.10;89.80;;;;;;5009134;28;39808;-76
2023/07/16 06:30:41;;;;;;;16.15;5.95;;;18.10;85.10;;;;;;5008234;28;39993;-77
2023/07/16 06:33:07;;;;;;;13.65;5.93;;;18.20;92.00;;;;;;5008853;28;38034;-77
2023/07/16 06:35:34;;;;;;;14.65;6.47;;;18.50;85.50;;;;;;5009908;28;38896;-78
2023/07/16 06:38:00;;;;;;;14.80;6.22;;;18.50;76.60;;;;;;5009445;28;39416;-77
2023/07/16 06:40:26;;;;;;;12.73;5.97;;;18.50;81.50;;;;;;5009258;28;38071;-77
2023/07/16 06:42:52;;;;;;;14.45;6.20;;;18.40;81.60;;;;;;5010388;28;36148;-78
2023/07/16 06:45:18;;;;;;;19.65;7.60;;;18.40;86.40;;;;;;5007087;28;39686;-75
2023/07/16 06:47:44;;;;;;;13.75;6.75;;;18.50;82.20;;;;;;5008700;28;38710;-78
2023/07/16 06:50:10;;;;;;;20.05;7.20;;;18.40;81.70;;;;;;5007450;28;38723;-76
2023/07/16 06:52:36;;;;;;;14.90;6.78;;;18.40;83.10;;;;;;5005768;28;38177;-78
2023/07/16 06:55:03;;;;;;;11.02;5.80;;;18.30;86.30;;;;;;5009062;28;40629;-76
2023/07/16 06:57:29;;;;;;;12.95;6.25;;;18.20;80.70;;;;;;5007280;28;39377;-78
2023/07/16 06:59:55;;;;;;;14.75;6.28;;;18.30;84.20;;;;;;5009824;28;39101;-77
2023/07/16 07:02:21;;;;;;;10.98;6.68;;;18.50;90.30;;;;;;5018365;28;37707;-76
2023/07/16 07:04:47;;;;;;;17.42;7.18;;;18.70;70.80;;;;;;5012743;28;37923;-77
2023/07/16 07:07:13;;;;;;;14.82;6.85;;;18.90;74.40;;;;;;5008978;28;39144;-77
2023/07/16 07:09:39;;;;;;;13.85;6.82;;;19.10;71.90;;;;;;5008140;28;39882;-77
2023/07/16 07:12:06;;;;;;;11.60;6.18;;;18.90;72.60;;;;;;5008057;28;36334;-77
2023/07/16 07:14:33;;;;;;;15.10;7.45;;;18.70;71.50;;;;;;5008143;28;40321;-77
2023/07/16 07:16:59;;;;;;;14.27;7.53;;;18.50;75.50;;;;;;5011012;28;38767;-77
2023/07/16 07:19:26;;;;;;;18.30;6.95;;;18.30;90.30;;;;;;5007505;28;39191;-77
2023/07/16 07:21:52;;;;;;;11.95;6.50;;;18.30;89.20;;;;;;5008662;28;37957;-78
2023/07/16 07:24:19;;;;;;;17.48;6.97;;;18.20;84.20;;;;;;5009845;28;38705;-76
2023/07/16 07:26:45;;;;;;;16.23;7.53;;;18.20;90.80;;;;;;5024245;28;38205;-76
2023/07/16 07:29:11;;;;;;;11.57;6.65;;;18.30;91.50;;;;;;5008733;28;38327;-77
2023/07/16 07:31:37;;;;;;;23.08;6.97;;;18.40;90.80;;;;;;5006407;28;36471;-75
2023/07/16 07:34:04;;;;;;;20.13;7.03;;;18.40;78.00;;;;;;5009221;28;38965;-78
2023/07/16 07:36:30;;;;;;;15.57;7.13;;;18.40;87.10;;;;;;5009346;28;39232;-77
2023/07/16 07:38:56;;;;;;;17.88;7.43;;;18.40;87.70;;;;;;5009695;28;38639;-78
2023/07/16 07:41:22;;;;;;;15.60;7.72;;;18.40;81.30;;;;;;4995117;28;37822;-78
2023/07/16 07:43:48;;;;;;;12.98;7.15;;;18.30;92.30;;;;;;5009920;28;39095;-78
2023/07/16 07:46:15;;;;;;;17.77;8.20;;;18.30;91.20;;;;;;5003598;28;38178;-76
2023/07/16 07:48:41;;;;;;;23.10;7.82;;;18.20;92.10;;;;;;5007831;28;38766;-78
2023/07/16 07:51:07;;;;;;;14.60;6.75;;;18.20;95.20;;;;;;5006959;28;38042;-78
2023/07/16 07:53:33;;;;;;;15.43;6.45;;;18.20;95.50;;;;;;5008918;28;39004;-77
2023/07/16 07:55:59;;;;;;;13.75;6.90;;;18.30;93.80;;;;;;5005359;28;38741;-78
2023/07/16 07:58:26;;;;;;;15.00;6.70;;;18.50;93.70;;;;;;5001631;28;40049;-77
2023/07/16 08:00:52;;;;;;;13.95;6.72;;;18.80;97.40;;;;;;5007668;28;37860;-77
2023/07/16 08:03:18;;;;;;;18.65;6.80;;;19.20;90.80;;;;;;5006910;28;39664;-77
2023/07/16 08:05:44;;;;;;;10.75;6.50;;;19.50;90.60;;;;;;5007171;28;39851;-77
2023/07/16 08:08:10;;;;;;;13.82;6.05;;;19.80;70.30;;;;;;5005722;28;39605;-78
2023/07/16 08:10:36;;;;;;;12.43;5.57;;;19.70;76.30;;;;;;5007330;28;39040;-77
2023/07/16 08:13:02;;;;;;;12.98;5.82;;;19.80;57.50;;;;;;5008178;28;37470;-78
2023/07/16 08:15:28;;;;;;;10.82;6.15;;;19.60;57.10;;;;;;5008291;28;38686;-77
2023/07/16 08:17:58;;;;;;;14.38;6.43;;;19.30;83.60;;;;;;5007518;28;39633;-77
2023/07/16 08:20:25;;;;;;;15.40;6.45;;;19.30;73.40;;;;;;5007549;28;37836;-77
2023/07/16 08:22:51;;;;;;;15.73;6.80;;;19.20;74.70;;;;;;5006884;28;40508;-78
2023/07/16 08:25:18;;;;;;;17.48;7.00;;;19.30;74.70;;;;;;5008041;28;40231;-78
2023/07/16 08:27:44;;;;;;;12.63;6.40;;;19.20;68.80;;;;;;5010118;28;39273;-77
2023/07/16 08:30:10;;;;;;;17.17;7.68;;;19.20;68.40;;;;;;5021143;28;38760;-77
2023/07/16 08:32:36;;;;;;;11.98;6.75;;;19.30;73.80;;;;;;5007311;28;39012;-77
2023/07/16 08:35:03;;;;;;;13.95;7.00;;;19.30;72.30;;;;;;5009240;28;38199;-78
2023/07/16 08:37:29;;;;;;;12.65;6.47;;;19.30;73.90;;;;;;5006155;28;38968;-77
2023/07/16 08:39:55;;;;;;;16.63;6.75;;;19.10;73.30;;;;;;5007898;28;36837;-78
2023/07/16 08:42:22;;;;;;;12.38;6.13;;;19.10;75.70;;;;;;5012145;28;40219;-77
2023/07/16 08:44:53;;;;;;;21.90;6.78;;;19.50;70.50;;;;;;5004421;28;39097;-77
2023/07/16 08:47:19;;;;;;;12.68;6.82;;;19.80;58.20;;;;;;5020618;28;39498;-78
2023/07/16 08:49:55;;;;;;;12.30;6.90;;;19.60;70.80;;;;;;5004040;28;37990;-78
2023/07/16 08:52:22;;;;;;;16.05;6.90;;;19.30;72.10;;;;;;5007464;28;38597;-78
2023/07/16 08:54:48;;;;;;;15.25;7.00;;;19.40;84.30;;;;;;4995608;28;38456;-78
2023/07/16 08:57:15;;;;;;;8.65;4.90;;;19.50;78.60;;;;;;5005925;28;38536;-79
2023/07/16 08:59:42;;;;;;;19.10;6.55;;;19.90;80.40;;;;;;5008366;28;38065;-77
2023/07/16 09:02:08;;;;;;;11.55;5.85;;;19.70;62.80;;;;;;5022908;28;39687;-77
2023/07/16 09:04:34;;;;;;;10.52;5.40;;;19.60;68.50;;;;;;5006363;28;38477;-78
2023/07/16 09:07:01;;;;;;;14.40;6.22;;;19.40;73.50;;;;;;5002981;28;38281;-77
2023/07/16 09:09:28;;;;;;;12.15;5.45;;;19.80;62.80;;;;;;5008042;28;47917;-77
2023/07/16 09:11:54;;;;;;;13.50;5.78;;;20.40;65.10;;;;;;5007537;28;37932;-78
2023/07/16 09:14:21;;;;;;;13.93;5.05;;;20.70;55.80;;;;;;5004311;28;39166;-77
2023/07/16 09:16:52;;;;;;;8.85;4.68;;;21.10;56.60;;;;;;5007690;28;36759;-78
2023/07/16 09:19:18;;;;;;;9.40;4.70;;;21.30;23.20;;;;;;5005118;28;37085;-76
2023/07/16 09:21:49;;;;;;;13.25;5.10;;;21.20;25.60;;;;;;5022981;28;40169;-77
2023/07/16 09:24:15;;;;;;;13.38;5.13;;;20.90;36.30;;;;;;5007965;28;37938;-78
2023/07/16 09:26:53;;;;;;;12.95;4.82;;;21.30;43.40;;;;;;5006558;28;39384;-77
2023/07/16 09:29:20;;;;;;;11.45;6.15;;;21.50;30.00;;;;;;5006009;28;39032;-78
2023/07/16 09:32:04;;;;;;;11.98;5.60;;;21.20;25.10;;;;;;5007746;28;40662;-77
2023/07/16 09:34:31;;;;;;;12.13;5.50;;;21.40;36.90;;;;;;5000766;28;47208;-78
2023/07/16 09:36:58;;;;;;;10.50;5.30;;;20.90;38.70;;;;;;5006760;28;39762;-77
2023/07/16 09:39:26;;;;;;;14.02;6.05;;;20.50;44.40;;;;;;5008827;28;37873;-77
2023/07/16 09:41:53;;;;;;;11.90;5.85;;;20.30;55.30;;;;;;5007108;28;40879;-77
2023/07/16 09:44:20;;;;;;;13.50;5.60;;;20.30;47.30;;;;;;5006638;28;40111;-77
2023/07/16 09:46:47;;;;;;;9.50;5.10;;;20.30;54.30;;;;;;5006569;28;38596;-77
2023/07/16 09:49:15;;;;;;;9.88;5.65;;;20.40;49.80;;;;;;5008519;28;38285;-76
2023/07/16 09:51:43;;;;;;;11.10;4.90;;;20.60;53.30;;;;;;5006057;28;39955;-77
2023/07/16 09:54:15;;;;;;;11.15;5.05;;;20.70;37.20;;;;;;5004915;28;39612;-77
2023/07/16 09:56:49;;;;;;;10.48;4.50;;;20.70;46.70;;;;;;5003966;28;39956;-78
2023/07/16 09:59:19;;;;;;;10.43;4.28;;;21.20;45.70;;;;;;5003695;28;37463;-77
2023/07/16 10:01:45;;;;;;;8.73;3.97;;;21.40;30.20;;;;;;5005947;28;39393;-79
2023/07/16 10:04:19;;;;;;;11.93;4.30;;;21.10;21.90;;;;;;5006223;28;38707;-79
2023/07/16 10:06:55;;;;;;;10.93;4.00;;;20.90;37.20;;;;;;5007436;28;38561;-78
2023/07/16 10:09:37;;;;;;;10.40;4.40;;;21.30;26.90;;;;;;5021314;28;37427;-77
2023/07/16 10:12:15;;;;;;;11.63;4.65;;;21.40;32.30;;;;;;4998494;28;38732;-77
2023/07/16 10:14:46;;;;;;;7.22;3.35;;;21.90;39.60;;;;;;5007650;28;38279;-77
2023/07/16 10:17:17;;;;;;;9.45;3.28;;;21.80;18.40;;;;;;5025382;28;39605;-76
2023/07/16 10:19:50;;;;;;;10.05;3.22;;;22.00;14.80;;;;;;5012350;28;36936;-78
2023/07/16 10:22:18;;;;;;;7.18;3.03;;;21.80;1.00;;;;;;5009122;28;40494;-78
2023/07/16 10:24:50;;;;;;;11.05;3.95;;;21.60;26.20;;;;;;5020663;28;40062;-78
2023/07/16 10:27:28;;;;;;;9.70;3.38;;;21.80;19.90;;;;;;5007668;28;39828;-78
2023/07/16 10:29:54;;;;;;;9.65;3.50;;;22.00;1.00;;;;;;5009639;28;36844;-78
2023/07/16 10:32:21;;;;;;;7.72;2.90;;;21.60;1.00;;;;;;5009059;28;39062;-77
2023/07/16 10:34:47;;;;;;;7.72;3.28;;;21.60;99.90;;;;;;5010445;28;38514;-79
2023/07/16 10:37:13;;;;;;;7.20;3.03;;;21.80;99.90;;;;;;5009234;28;39242;-79
2023/07/16 10:39:54;;;;;;;8.85;3.35;;;22.00;99.90;;;;;;5012139;28;37469;-79
2023/07/16 10:42:21;;;;;;;8.90;3.22;;;22.20;99.90;;;;;;5010783;28;39267;-79
2023/07/16 10:44:54;;;;;;;7.07;2.88;;;22.10;99.90;;;;;;5011537;28;38905;-76
2023/07/16 10:47:47;;;;;;;8.90;3.25;;;22.20;99.90;;;;;;4995921;28;37342;-77
2023/07/16 10:50:13;;;;;;;6.68;2.50;;;22.30;99.90;;;;;;5008679;28;36157;-78
2023/07/16 10:52:39;;;;;;;7.65;2.50;;;22.30;99.90;;;;;;5009595;28;39237;-78
2023/07/16 10:55:06;;;;;;;8.50;2.50;;;22.10;99.90;;;;;;5009536;28;37248;-78
2023/07/16 10:57:32;;;;;;;6.95;2.53;;;22.30;99.90;;;;;;5009628;28;37286;-77
2023/07/16 11:00:00;;;;;;;5.88;3.22;;;22.50;99.90;;;;;;5007811;28;37636;-77
2023/07/16 11:02:26;;;;;;;9.05;2.70;;;22.90;99.90;;;;;;5008758;28;39900;-78
2023/07/16 11:04:53;;;;;;;9.23;2.55;;;22.50;99.90;;;;;;5000571;28;38304;-78
2023/07/16 11:07:20;;;;;;;6.00;2.38;;;21.60;99.90;;;;;;5007861;28;38378;-79
2023/07/16 11:09:49;;;;;;;5.88;1.90;;;21.80;99.90;;;;;;5009067;28;36275;-78
2023/07/16 11:12:17;;;;;;;5.35;2.40;;;22.40;99.90;;;;;;5009295;28;37978;-79
2023/07/16 11:14:46;;;;;;;6.18;2.03;;;22.60;99.90;;;;;;5011096;28;39179;-78
2023/07/16 11:17:13;;;;;;;11.38;2.50;;;22.10;99.90;;;;;;5010031;28;38306;-79
2023/07/16 11:19:42;;;;;;;7.07;2.20;;;21.90;99.90;;;;;;5008474;28;36163;-79
2023/07/16 11:22:09;;;;;;;8.35;2.25;;;22.00;99.90;;;;;;5008097;28;39200;-78
2023/07/16 11:24:47;;;;;;;4.68;1.88;;;21.90;99.90;;;;;;5008592;28;37674;-79
2023/07/16 11:27:15;;;;;;;6.88;1.92;;;22.10;99.90;;;;;;5023604;28;39932;-78
2023/07/16 11:29:48;;;;;;;6.43;2.20;;;22.20;99.90;;;;;;5009044;28;37453;-78
2023/07/16 11:32:32;;;;;;;7.30;2.22;;;22.00;99.90;;;;;;5007208;28;39598;-78
2023/07/16 11:35:00;;;;;;;6.13;1.85;;;21.70;99.90;;;;;;5025254;28;37527;-78
2023/07/16 11:37:28;;;;;;;7.30;2.53;;;21.60;99.90;;;;;;5007025;28;39813;-79
2023/07/16 11:40:05;;;;;;;6.05;2.10;;;21.40;99.90;;;;;;5006596;28;38244;-79
2023/07/16 11:42:37;;;;;;;6.50;1.95;;;21.20;99.90;;;;;;5008959;28;47366;-79
2023/07/16 11:45:04;;;;;;;6.10;1.63;;;21.30;99.90;;;;;;5006832;28;39084;-79
2023/07/16 11:47:31;;;;;;;11.15;2.28;;;21.50;99.90;;;;;;5008370;28;48687;-80
2023/07/16 11:49:58;;;;;;;6.32;2.40;;;21.70;99.90;;;;;;5010205;28;37103;-80
2023/07/16 11:52:28;;;;;;;4.85;1.80;;;21.80;99.90;;;;;;5006503;28;39690;-79
2023/07/16 11:54:56;;;;;;;11.95;2.38;;;21.70;99.90;;;;;;5025531;28;39912;-79
2023/07/16 11:57:23;;;;;;;8.25;2.58;;;21.60;99.90;;;;;;5013143;28;37268;-79
2023/07/16 11:59:49;;;;;;;10.82;2.33;;;21.70;99.90;;;;;;5009974;28;38227;-79
2023/07/16 12:02:15;;;;;;;7.55;1.92;;;21.90;99.90;;;;;;5007200;28;38431;-79
2023/07/16 12:04:42;;;;;;;9.48;1.98;;;21.70;99.90;;;;;;5026158;28;39042;-80
2023/07/16 12:07:08;;;;;;;8.60;2.30;;;21.80;99.90;;;;;;5009441;28;39052;-80
2023/07/16 12:09:35;;;;;;;8.40;2.13;;;22.30;99.90;;;;;;5007340;28;36351;-79
2023/07/16 12:12:02;;;;;;;7.10;1.88;;;22.80;99.90;;;;;;5025486;28;40059;-79
2023/07/16 12:14:28;;;;;;;7.78;2.30;;;22.60;99.90;;;;;;5009695;28;49849;-79
2023/07/16 12:16:56;;;;;;;10.80;2.00;;;22.50;99.90;;;;;;5008983;28;37103;-78
2023/07/16 12:19:22;;;;;;;8.80;1.80;;;22.80;99.90;;;;;;5008458;28;39064;-77
2023/07/16 12:21:48;;;;;;;9.30;2.03;;;22.80;99.90;;;;;;5009840;28;38762;-77
2023/07/16 12:24:14;;;;;;;7.35;1.83;;;22.40;99.90;;;;;;5008660;28;39829;-79
2023/07/16 12:26:40;;;;;;;11.23;2.00;;;22.10;99.90;;;;;;5009307;28;37189;-79
2023/07/16 12:29:06;;;;;;;15.30;3.10;;;22.00;99.90;;;;;;5023883;28;37975;-79
2023/07/16 12:31:33;;;;;;;9.93;2.28;;;21.80;99.90;;;;;;5007537;28;39272;-80
2023/07/16 12:34:04;;;;;;;8.25;2.28;;;21.70;99.90;;;;;;5008683;28;39891;-77
2023/07/16 12:36:30;;;;;;;8.52;1.92;;;21.40;99.90;;;;;;5006040;28;46977;-80
2023/07/16 12:38:56;;;;;;;8.13;1.90;;;21.60;99.90;;;;;;5010732;28;36783;-79
2023/07/16 12:41:23;;;;;;;5.53;1.65;;;22.20;99.90;;;;;;5010909;28;39803;-79